Time;durP1;ratioP1;P1;durP2;ratioP2;P2;SDS_P1;SDS_P2;PMS_P1;PMS_P2;Temp;Humidity;BMP_temperature;BMP_pressure;BME280_temperature;BME280_humidity;BME280_pressure;Samples;Min_cycle;Max_cycle;Signal;HPM_P1;HPM_P2
2023/07/15 00:00:29;;;;;;;4.13;2.15;;;;;;;;;;5008664;28;20295;-80
2023/07/15 00:02:56;;;;;;;3.88;2.25;;;;;;;;;;5004744;28;20235;-79
2023/07/15 00:05:29;;;;;;;3.63;2.13;;;;;;;;;;4999687;28;20234;-79
2023/07/15 00:07:56;;;;;;;4.30;2.42;;;;;;;;;;5006587;28;20649;-79
2023/07/15 00:10:23;;;;;;;6.57;2.50;;;;;;;;;;5003093;28;20653;-79
2023/07/15 00:12:52;;;;;;;2.60;2.20;;;;;;;;;;5005705;28;20588;-79
2023/07/15 00:15:19;;;;;;;4.05;2.20;;;;;;;;;;4991798;28;20208;-79
2023/07/15 00:17:46;;;;;;;7.03;2.60;;;;;;;;;;4991713;28;20379;-79
2023/07/15 00:20:14;;;;;;;4.53;2.70;;;;;;;;;;4991584;28;20682;-79
2023/07/15 00:22:43;;;;;;;2.92;2.30;;;;;;;;;;4995695;28;20652;-79
2023/07/15 00:25:11;;;;;;;6.50;2.42;;;;;;;;;;5002951;28;20219;-79
2023/07/15 00:27:38;;;;;;;3.47;1.92;;;;;;;;;;5007001;28;20602;-79
2023/07/15 00:30:08;;;;;;;4.53;2.30;;;;;;;;;;5007267;28;20211;-79
2023/07/15 00:32:35;;;;;;;4.95;2.03;;;;;;;;;;5002772;28;20311;-79
2023/07/15 00:35:02;;;;;;;4.13;2.28;;;;;;;;;;5011580;28;20265;-79
2023/07/15 00:37:29;;;;;;;5.30;2.70;;;;;;;;;;5010692;28;20215;-79
2023/07/15 00:39:56;;;;;;;2.83;2.13;;;;;;;;;;5011200;28;20214;-79
2023/07/15 00:42:51;;;;;;;3.28;2.00;;;;;;;;;;5003674;28;20285;-79
2023/07/15 00:45:18;;;;;;;6.13;2.40;;;;;;;;;;5030977;28;20217;-79
2023/07/15 00:47:47;;;;;;;4.60;2.53;;;;;;;;;;5026218;28;20736;-79
2023/07/15 00:50:15;;;;;;;5.53;2.40;;;;;;;;;;5003011;28;20336;-81
2023/07/15 00:52:42;;;;;;;4.18;1.95;;;;;;;;;;5002794;28;20262;-79
2023/07/15 00:55:10;;;;;;;4.05;2.38;;;;;;;;;;5002006;28;20277;-79
2023/07/15 00:57:37;;;;;;;4.65;2.47;;;;;;;;;;5010721;28;20239;-79
2023/07/15 01:00:09;;;;;;;3.80;2.55;;;;;;;;;;5011036;28;20207;-79
2023/07/15 01:02:37;;;;;;;5.47;3.42;;;;;;;;;;5016434;28;20707;-79
2023/07/15 01:05:06;;;;;;;3.90;2.67;;;;;;;;;;5037121;28;20253;-79
2023/07/15 01:07:33;;;;;;;4.15;2.60;;;;;;;;;;5023116;28;20207;-80
2023/07/15 01:10:00;;;;;;;4.15;2.17;;;;;;;;;;5006225;28;20211;-80
2023/07/15 01:12:28;;;;;;;3.28;2.42;;;;;;;;;;5010489;28;20314;-79
2023/07/15 01:14:55;;;;;;;4.35;2.45;;;;;;;;;;4997160;28;20670;-79
2023/07/15 01:17:22;;;;;;;5.65;2.60;;;;;;;;;;4990707;28;20682;-79
2023/07/15 01:19:50;;;;;;;2.92;2.47;;;;;;;;;;4996314;28;20211;-79
2023/07/15 01:22:19;;;;;;;4.28;2.80;;;;;;;;;;4993262;28;20323;-80
2023/07/15 01:24:47;;;;;;;7.60;2.50;;;;;;;;;;5001105;28;20266;-79
2023/07/15 01:27:14;;;;;;;5.63;2.70;;;;;;;;;;5002259;28;20306;-79
2023/07/15 01:29:43;;;;;;;3.22;2.53;;;;;;;;;;5006823;28;20575;-79
2023/07/15 01:32:11;;;;;;;3.47;2.55;;;;;;;;;;5007286;28;20665;-79
2023/07/15 01:34:38;;;;;;;3.70;2.47;;;;;;;;;;4999039;28;20228;-79
2023/07/15 01:37:05;;;;;;;4.75;2.58;;;;;;;;;;5002310;28;20196;-79
2023/07/15 01:39:33;;;;;;;3.25;2.58;;;;;;;;;;4993667;28;20262;-79
2023/07/15 01:42:02;;;;;;;4.35;2.33;;;;;;;;;;5003349;28;20227;-79
2023/07/15 01:44:29;;;;;;;6.95;2.58;;;;;;;;;;5004108;28;20227;-79
2023/07/15 01:46:56;;;;;;;2.83;2.53;;;;;;;;;;5008399;28;20220;-79
2023/07/15 01:49:23;;;;;;;3.47;2.47;;;;;;;;;;5011277;28;20653;-79
2023/07/15 01:51:50;;;;;;;4.30;2.40;;;;;;;;;;5014318;28;20285;-79
2023/07/15 01:54:17;;;;;;;3.95;2.72;;;;;;;;;;5004889;28;20306;-80
2023/07/15 01:56:44;;;;;;;3.92;2.83;;;;;;;;;;5006652;28;20661;-79
2023/07/15 01:59:12;;;;;;;5.22;2.80;;;;;;;;;;5005325;28;20233;-79
2023/07/15 02:01:41;;;;;;;6.78;2.78;;;;;;;;;;5005610;28;20203;-79
2023/07/15 02:04:08;;;;;;;4.30;3.10;;;;;;;;;;5020835;28;20309;-79
2023/07/15 02:06:35;;;;;;;4.23;2.70;;;;;;;;;;5033050;28;20226;-79
2023/07/15 02:09:07;;;;;;;3.37;2.57;;;;;;;;;;5033101;28;20263;-79
2023/07/15 02:11:34;;;;;;;3.05;2.70;;;;;;;;;;5033110;28;20215;-79
2023/07/15 02:14:01;;;;;;;2.77;2.37;;;;;;;;;;5032869;28;20731;-79
2023/07/15 02:16:30;;;;;;;6.40;2.80;;;;;;;;;;5033108;28;20214;-79
2023/07/15 02:18:57;;;;;;;3.07;2.77;;;;;;;;;;5010464;28;20223;-79
2023/07/15 02:21:25;;;;;;;2.67;2.47;;;;;;;;;;5013185;28;20215;-79
2023/07/15 02:23:52;;;;;;;5.10;2.50;;;;;;;;;;5013178;28;20313;-80
2023/07/15 02:26:20;;;;;;;5.53;2.27;;;;;;;;;;5012659;28;20327;-80
2023/07/15 02:28:48;;;;;;;2.70;2.50;;;;;;;;;;5005847;28;20306;-79
2023/07/15 02:31:15;;;;;;;2.92;2.25;;;;;;;;;;4997305;28;20208;-79
2023/07/15 02:33:43;;;;;;;2.60;2.40;;;;;;;;;;5004621;28;20263;-79
2023/07/15 02:36:11;;;;;;;5.27;2.40;;;;;;;;;;5005776;28;20204;-79
2023/07/15 02:38:38;;;;;;;2.30;2.10;;;;;;;;;;4993861;28;20235;-79
2023/07/15 02:41:05;;;;;;;3.37;3.07;;;;;;;;;;5008581;28;20669;-79
2023/07/15 02:43:32;;;;;;;4.55;2.40;;;;;;;;;;5002238;28;20587;-79
2023/07/15 02:45:59;;;;;;;5.63;2.50;;;;;;;;;;5001924;28;20227;-79
2023/07/15 02:48:26;;;;;;;2.60;2.40;;;;;;;;;;5001495;28;20232;-79
2023/07/15 02:50:55;;;;;;;4.10;2.50;;;;;;;;;;5013161;28;20216;-80
2023/07/15 02:53:22;;;;;;;3.17;2.70;;;;;;;;;;5004544;28;20238;-79
2023/07/15 02:55:49;;;;;;;2.50;2.30;;;;;;;;;;5013692;28;20207;-79
2023/07/15 02:58:17;;;;;;;3.60;2.63;;;;;;;;;;5004736;28;20231;-79
2023/07/15 03:00:44;;;;;;;4.53;2.70;;;;;;;;;;5013242;28;20298;-79
2023/07/15 03:03:11;;;;;;;4.63;2.70;;;;;;;;;;5004362;28;20623;-80
2023/07/15 03:05:39;;;;;;;2.80;2.60;;;;;;;;;;5012798;28;20273;-79
2023/07/15 03:08:07;;;;;;;2.83;2.50;;;;;;;;;;5003946;28;20231;-80
2023/07/15 03:10:34;;;;;;;3.20;2.70;;;;;;;;;;5013057;28;20265;-79
2023/07/15 03:13:01;;;;;;;3.50;2.50;;;;;;;;;;4998337;28;20301;-80
2023/07/15 03:15:28;;;;;;;2.73;2.50;;;;;;;;;;4993183;28;20263;-79
2023/07/15 03:17:56;;;;;;;3.93;2.40;;;;;;;;;;4993215;28;20236;-79
2023/07/15 03:20:23;;;;;;;3.03;2.50;;;;;;;;;;5010519;28;20299;-79
2023/07/15 03:22:51;;;;;;;3.17;2.70;;;;;;;;;;5005011;28;20235;-79
2023/07/15 03:25:20;;;;;;;3.47;2.47;;;;;;;;;;5013646;28;20218;-79
2023/07/15 03:27:47;;;;;;;2.93;2.30;;;;;;;;;;5006653;28;20656;-79
2023/07/15 03:30:14;;;;;;;3.00;2.60;;;;;;;;;;5013947;28;20262;-80
2023/07/15 03:32:42;;;;;;;3.57;2.70;;;;;;;;;;5024045;28;20243;-81
2023/07/15 03:35:10;;;;;;;3.43;2.50;;;;;;;;;;5017050;28;20195;-81
2023/07/15 03:37:37;;;;;;;3.83;2.73;;;;;;;;;;5023726;28;20297;-80
2023/07/15 03:40:05;;;;;;;2.53;2.33;;;;;;;;;;5030976;28;20229;-80
2023/07/15 03:42:33;;;;;;;7.83;2.87;;;;;;;;;;5027092;28;20254;-80
2023/07/15 03:45:00;;;;;;;3.40;2.90;;;;;;;;;;5010021;28;20302;-80
2023/07/15 03:47:27;;;;;;;4.27;2.90;;;;;;;;;;5012007;28;20265;-80
2023/07/15 03:49:55;;;;;;;13.10;3.93;;;;;;;;;;5012330;28;20207;-80
2023/07/15 03:52:23;;;;;;;5.13;2.60;;;;;;;;;;5011608;28;20235;-80
2023/07/15 03:54:50;;;;;;;9.63;2.93;;;;;;;;;;5012162;28;20764;-80
2023/07/15 03:57:17;;;;;;;3.87;2.87;;;;;;;;;;5011967;28;20262;-81
2023/07/15 03:59:45;;;;;;;7.77;3.00;;;;;;;;;;5011446;28;20242;-81
2023/07/15 04:02:12;;;;;;;10.27;3.33;;;;;;;;;;5003293;28;20227;-81
2023/07/15 04:04:39;;;;;;;4.20;2.80;;;;;;;;;;5012524;28;20211;-81
2023/07/15 04:07:08;;;;;;;3.77;3.20;;;;;;;;;;5011838;28;20245;-80
2023/07/15 04:09:36;;;;;;;4.07;2.93;;;;;;;;;;5050458;28;20244;-81
2023/07/15 04:12:03;;;;;;;5.33;2.90;;;;;;;;;;5051755;28;20695;-80
2023/07/15 04:14:30;;;;;;;8.63;2.93;;;;;;;;;;5041434;28;20234;-81
2023/07/15 04:16:58;;;;;;;5.83;3.13;;;;;;;;;;5031818;28;20211;-80
2023/07/15 04:19:25;;;;;;;6.33;2.93;;;;;;;;;;5013199;28;20231;-80
2023/07/15 04:21:52;;;;;;;4.70;2.93;;;;;;;;;;5003758;28;20227;-81
2023/07/15 04:24:19;;;;;;;3.57;3.10;;;;;;;;;;5011622;28;20285;-80
2023/07/15 04:26:46;;;;;;;6.30;3.00;;;;;;;;;;5011605;28;20665;-80
2023/07/15 04:29:13;;;;;;;6.23;2.70;;;;;;;;;;5011522;28;20250;-80
2023/07/15 04:31:42;;;;;;;3.83;2.77;;;;;;;;;;5011212;28;20236;-81
2023/07/15 04:34:10;;;;;;;3.40;3.10;;;;;;;;;;5011654;28;20261;-81
2023/07/15 04:36:37;;;;;;;6.37;3.03;;;;;;;;;;5011481;28;20759;-81
2023/07/15 04:39:05;;;;;;;6.00;2.73;;;;;;;;;;4997550;28;20242;-81
2023/07/15 04:41:33;;;;;;;4.67;3.27;;;;;;;;;;4991885;28;20215;-81
2023/07/15 04:44:00;;;;;;;4.40;2.93;;;;;;;;;;5011853;28;20234;-80
2023/07/15 04:46:27;;;;;;;4.43;2.93;;;;;;;;;;5031478;28;20207;-81
2023/07/15 04:48:54;;;;;;;5.57;3.00;;;;;;;;;;5026839;28;20231;-81
2023/07/15 04:51:23;;;;;;;4.33;3.00;;;;;;;;;;5019677;28;20720;-81
2023/07/15 04:53:50;;;;;;;4.60;3.23;;;;;;;;;;5013781;28;20239;-80
2023/07/15 04:56:18;;;;;;;5.00;2.97;;;;;;;;;;5007626;28;20204;-81
2023/07/15 04:58:45;;;;;;;5.43;3.40;;;;;;;;;;5023314;28;20230;-80
2023/07/15 05:01:13;;;;;;;5.83;2.97;;;;;;;;;;5031145;28;20245;-80
2023/07/15 05:03:40;;;;;;;4.77;2.83;;;;;;;;;;5007898;28;20354;-80
2023/07/15 05:06:08;;;;;;;6.63;3.30;;;;;;;;;;4991975;28;20204;-81
2023/07/15 05:08:37;;;;;;;4.00;3.43;;;;;;;;;;4999260;28;20357;-81
2023/07/15 05:11:04;;;;;;;6.80;3.77;;;;;;;;;;5001406;28;20211;-81
2023/07/15 05:13:31;;;;;;;5.40;3.23;;;;;;;;;;4995359;28;20287;-81
2023/07/15 05:15:58;;;;;;;5.40;3.77;;;;;;;;;;5000191;28;20688;-81
2023/07/15 05:18:25;;;;;;;11.03;3.60;;;;;;;;;;5006760;28;20620;-81
2023/07/15 05:20:52;;;;;;;4.60;3.40;;;;;;;;;;5015035;28;20212;-81
2023/07/15 05:23:20;;;;;;;5.03;4.20;;;;;;;;;;5007257;28;20227;-80
2023/07/15 05:25:49;;;;;;;4.37;3.77;;;;;;;;;;5014472;28;20207;-81
2023/07/15 05:28:16;;;;;;;5.80;3.63;;;;;;;;;;5014602;28;20242;-81
2023/07/15 05:30:43;;;;;;;5.80;3.83;;;;;;;;;;5006974;28;20216;-81
2023/07/15 05:33:10;;;;;;;9.27;3.70;;;;;;;;;;5000862;28;20232;-82
2023/07/15 05:35:37;;;;;;;8.10;3.80;;;;;;;;;;4995004;28;20219;-81
2023/07/15 05:38:04;;;;;;;5.53;3.50;;;;;;;;;;5008233;28;20638;-81
2023/07/15 05:40:31;;;;;;;4.47;4.03;;;;;;;;;;5014938;28;20219;-81
2023/07/15 05:42:59;;;;;;;9.33;4.07;;;;;;;;;;5007681;28;20653;-82
2023/07/15 05:45:26;;;;;;;5.43;3.90;;;;;;;;;;5007185;28;20212;-81
2023/07/15 05:47:53;;;;;;;7.30;3.90;;;;;;;;;;5026260;28;20230;-81
2023/07/15 05:50:20;;;;;;;4.30;3.83;;;;;;;;;;5047401;28;20607;-81
2023/07/15 05:52:47;;;;;;;5.30;3.67;;;;;;;;;;5052679;28;20237;-82
2023/07/15 05:55:14;;;;;;;8.63;3.90;;;;;;;;;;5055079;28;20233;-81
2023/07/15 05:57:41;;;;;;;7.82;3.65;;;;;;;;;;5043051;28;20237;-81
2023/07/15 06:00:11;;;;;;;11.40;3.88;;;;;;;;;;5043357;28;20199;-81
2023/07/15 06:02:39;;;;;;;5.55;3.20;;;;;;;;;;5030520;28;20239;-82
2023/07/15 06:05:06;;;;;;;4.15;3.33;;;;;;;;;;5014554;28;20207;-81
2023/07/15 06:07:33;;;;;;;11.77;3.10;;;;;;;;;;5005264;28;20243;-82
2023/07/15 06:10:00;;;;;;;4.60;2.92;;;;;;;;;;5013870;28;20537;-82
2023/07/15 06:12:27;;;;;;;7.93;2.92;;;;;;;;;;5013174;28;20274;-82
2023/07/15 06:14:55;;;;;;;5.50;2.90;;;;;;;;;;5014015;28;20214;-82
2023/07/15 06:17:24;;;;;;;6.30;3.17;;;;;;;;;;5014434;28;20669;-82
2023/07/15 06:19:51;;;;;;;4.80;2.58;;;;;;;;;;5014029;28;20657;-82
2023/07/15 06:22:18;;;;;;;4.32;3.03;;;;;;;;;;5013447;28;20238;-82
2023/07/15 06:24:46;;;;;;;3.42;2.90;;;;;;;;;;5011605;28;20214;-82
2023/07/15 06:27:13;;;;;;;8.02;3.22;;;;;;;;;;5007849;28;20227;-82
2023/07/15 06:29:41;;;;;;;6.00;2.65;;;;;;;;;;5013881;28;20208;-82
2023/07/15 06:32:08;;;;;;;7.60;3.22;;;;;;;;;;5005860;28;20307;-82
2023/07/15 06:34:36;;;;;;;3.78;3.05;;;;;;;;;;5012548;28;20234;-82
2023/07/15 06:37:04;;;;;;;4.07;2.92;;;;;;;;;;5002616;28;20208;-82
2023/07/15 06:39:31;;;;;;;4.20;3.17;;;;;;;;;;5009452;28;20289;-81
2023/07/15 06:41:58;;;;;;;2.40;2.20;;;;;;;;;;5013622;28;20701;-82
2023/07/15 06:44:25;;;;;;;3.65;2.40;;;;;;;;;;5049554;28;20280;-82
2023/07/15 06:46:52;;;;;;;3.35;2.30;;;;;;;;;;5050050;28;20695;-82
2023/07/15 06:49:19;;;;;;;3.03;2.58;;;;;;;;;;5015563;28;20228;-82
2023/07/15 06:51:47;;;;;;;2.25;2.10;;;;;;;;;;5013151;28;20227;-82
2023/07/15 06:54:14;;;;;;;2.30;2.10;;;;;;;;;;4998530;28;20729;-82
2023/07/15 06:56:41;;;;;;;2.13;1.92;;;;;;;;;;4993738;28;20262;-82
2023/07/15 06:59:08;;;;;;;2.50;1.80;;;;;;;;;;5001406;28;20227;-82
2023/07/15 07:01:35;;;;;;;3.03;2.00;;;;;;;;;;5010253;28;20622;-82
2023/07/15 07:04:02;;;;;;;1.85;1.73;;;;;;;;;;5012583;28;20602;-82
2023/07/15 07:06:29;;;;;;;2.60;1.70;;;;;;;;;;4997056;28;20637;-82
2023/07/15 07:08:58;;;;;;;3.35;2.13;;;;;;;;;;4993216;28;20227;-82
2023/07/15 07:11:25;;;;;;;2.63;2.00;;;;;;;;;;4993692;28;20211;-82
2023/07/15 07:13:52;;;;;;;12.50;2.35;;;;;;;;;;5007707;28;20293;-82
2023/07/15 07:16:19;;;;;;;2.55;1.85;;;;;;;;;;5001026;28;20208;-82
2023/07/15 07:18:46;;;;;;;1.98;1.75;;;;;;;;;;5010092;28;20771;-83
2023/07/15 07:21:13;;;;;;;2.60;1.80;;;;;;;;;;5015818;28;20211;-84
2023/07/15 07:23:40;;;;;;;2.33;1.67;;;;;;;;;;5015134;28;20652;-83
2023/07/15 07:26:09;;;;;;;2.08;1.77;;;;;;;;;;5010502;28;20755;-83
2023/07/15 07:28:40;;;;;;;1.88;1.70;;;;;;;;;;5035981;28;20255;-83
2023/07/15 07:31:07;;;;;;;4.07;2.40;;;;;;;;;;5046484;28;20217;-83
2023/07/15 07:33:34;;;;;;;2.78;2.20;;;;;;;;;;5052902;28;20235;-82
2023/07/15 07:36:01;;;;;;;3.45;2.25;;;;;;;;;;5055756;28;20202;-82
2023/07/15 07:38:28;;;;;;;7.55;2.20;;;;;;;;;;5052784;28;20230;-83
2023/07/15 07:40:55;;;;;;;3.22;2.08;;;;;;;;;;5053501;28;20206;-82
2023/07/15 07:43:24;;;;;;;5.38;1.85;;;;;;;;;;5048294;28;20241;-82
2023/07/15 07:45:51;;;;;;;3.17;2.28;;;;;;;;;;5041809;28;20207;-83
2023/07/15 07:48:18;;;;;;;4.72;3.17;;;;;;;;;;5017577;28;20223;-83
2023/07/15 07:50:45;;;;;;;4.35;2.78;;;;;;;;;;5006981;28;20212;-83
2023/07/15 07:53:12;;;;;;;5.40;2.45;;;;;;;;;;5009846;28;20235;-83
2023/07/15 07:55:39;;;;;;;9.45;2.30;;;;;;;;;;5006539;28;20211;-83
2023/07/15 07:58:06;;;;;;;2.50;2.03;;;;;;;;;;5005631;28;20230;-83
2023/07/15 08:00:34;;;;;;;2.90;1.98;;;;;;;;;;5017876;28;20677;-83
2023/07/15 08:03:02;;;;;;;3.30;2.17;;;;;;;;;;5025082;28;20238;-83
2023/07/15 08:05:29;;;;;;;2.28;2.00;;;;;;;;;;5038058;28;20230;-83
2023/07/15 08:07:57;;;;;;;1.77;1.67;;;;;;;;;;5020435;28;20239;-82
2023/07/15 08:10:24;;;;;;;4.55;2.17;;;;;;;;;;5014243;28;20294;-84
2023/07/15 08:12:51;;;;;;;1.65;1.52;;;;;;;;;;5013255;28;20580;-87
2023/07/15 08:15:18;;;;;;;7.65;2.20;;;;;;;;;;5014340;28;20219;-85
2023/07/15 08:17:46;;;;;;;2.83;2.30;;;;;;;;;;5014543;28;20233;-85
2023/07/15 08:20:13;;;;;;;6.30;2.50;;;;;;;;;;5014359;28;20262;-85
2023/07/15 08:22:40;;;;;;;2.55;2.13;;;;;;;;;;5010184;28;20302;-87
2023/07/15 08:25:08;;;;;;;3.17;2.33;;;;;;;;;;5027995;28;20214;-86
2023/07/15 08:27:35;;;;;;;3.63;2.20;;;;;;;;;;5032992;28;20288;-86
2023/07/15 08:30:02;;;;;;;6.75;2.05;;;;;;;;;;5026487;28;20260;-86
2023/07/15 08:32:29;;;;;;;1.70;1.60;;;;;;;;;;5025588;28;20222;-87
2023/07/15 08:35:01;;;;;;;1.73;1.60;;;;;;;;;;5021534;28;20619;-85
2023/07/15 08:37:28;;;;;;;2.65;2.00;;;;;;;;;;5020349;28;20207;-86
2023/07/15 08:39:55;;;;;;;2.25;1.60;;;;;;;;;;5020193;28;20214;-87
2023/07/15 08:42:22;;;;;;;1.88;1.77;;;;;;;;;;5018270;28;20230;-87
2023/07/15 08:44:50;;;;;;;3.13;1.58;;;;;;;;;;5031901;28;20268;-86
2023/07/15 08:47:19;;;;;;;1.73;1.63;;;;;;;;;;5016264;28;20677;-86
2023/07/15 08:49:47;;;;;;;1.85;1.73;;;;;;;;;;5025139;28;20677;-85
2023/07/15 08:52:16;;;;;;;2.92;1.50;;;;;;;;;;5022395;28;20231;-84
2023/07/15 08:54:43;;;;;;;2.08;1.65;;;;;;;;;;5024640;28;20219;-85
2023/07/15 08:57:11;;;;;;;2.70;1.90;;;;;;;;;;5030946;28;20259;-85
2023/07/15 08:59:38;;;;;;;1.73;1.35;;;;;;;;;;5046762;28;20673;-85
2023/07/15 09:02:05;;;;;;;1.88;1.77;;;;;;;;;;5034790;28;20425;-86
2023/07/15 09:04:33;;;;;;;1.90;1.70;;;;;;;;;;5006625;28;20230;-84
2023/07/15 09:07:00;;;;;;;2.72;1.50;;;;;;;;;;5019206;28;20211;-83
2023/07/15 09:09:33;;;;;;;1.60;1.50;;;;;;;;;;5007359;28;20238;-84
2023/07/15 09:12:01;;;;;;;2.00;1.90;;;;;;;;;;5006124;28;20226;-83
2023/07/15 09:14:28;;;;;;;1.77;1.67;;;;;;;;;;5014424;28;20227;-84
2023/07/15 09:16:56;;;;;;;7.13;2.83;;;;;;;;;;5012284;28;20219;-83
2023/07/15 09:19:26;;;;;;;3.15;1.90;;;;;;;;;;5003016;28;20228;-82
2023/07/15 09:21:55;;;;;;;2.30;1.75;;;;;;;;;;5012975;28;20246;-83
2023/07/15 09:24:23;;;;;;;1.80;1.60;;;;;;;;;;5014238;28;20717;-83
2023/07/15 09:26:53;;;;;;;1.70;1.60;;;;;;;;;;5006530;28;20204;-87
2023/07/15 09:29:21;;;;;;;1.70;1.60;;;;;;;;;;5014309;28;20613;-84
2023/07/15 09:31:48;;;;;;;2.85;1.90;;;;;;;;;;5006238;28;20310;-84
2023/07/15 09:34:15;;;;;;;2.30;1.95;;;;;;;;;;5007872;28;20227;-86
2023/07/15 09:36:42;;;;;;;3.75;1.85;;;;;;;;;;5015340;28;20576;-84
2023/07/15 09:39:12;;;;;;;2.33;1.77;;;;;;;;;;5015016;28;20224;-83
2023/07/15 09:41:40;;;;;;;3.75;1.55;;;;;;;;;;5013141;28;20314;-83
2023/07/15 09:44:08;;;;;;;3.80;1.60;;;;;;;;;;5020304;28;20644;-83
2023/07/15 09:46:35;;;;;;;1.92;1.83;;;;;;;;;;5011320;28;20350;-83
2023/07/15 09:49:03;;;;;;;4.22;1.80;;;;;;;;;;5036778;28;20236;-84
2023/07/15 09:51:30;;;;;;;3.95;1.95;;;;;;;;;;5053877;28;20268;-84
2023/07/15 09:53:58;;;;;;;3.05;1.95;;;;;;;;;;5045108;28;20226;-81
2023/07/15 09:56:28;;;;;;;3.15;2.33;;;;;;;;;;5046902;28;20203;-80
2023/07/15 09:58:56;;;;;;;2.90;2.17;;;;;;;;;;5010658;28;20228;-80
2023/07/15 10:01:28;;;;;;;3.70;2.33;;;;;;;;;;5013853;28;20257;-82
2023/07/15 10:03:56;;;;;;;4.97;2.30;;;;;;;;;;5003183;28;20282;-82
2023/07/15 10:06:23;;;;;;;2.45;2.25;;;;;;;;;;5002486;28;20315;-81
2023/07/15 10:08:51;;;;;;;2.97;1.95;;;;;;;;;;5009665;28;20650;-81
2023/07/15 10:11:19;;;;;;;3.45;2.20;;;;;;;;;;5007356;28;20281;-80
2023/07/15 10:13:46;;;;;;;3.28;2.00;;;;;;;;;;5013040;28;20258;-81
2023/07/15 10:16:13;;;;;;;2.50;2.15;;;;;;;;;;5013847;28;20265;-82
2023/07/15 10:18:41;;;;;;;2.30;2.10;;;;;;;;;;5005478;28;20243;-82
2023/07/15 10:21:09;;;;;;;3.08;1.90;;;;;;;;;;5005530;28;20537;-81
2023/07/15 10:23:36;;;;;;;3.90;2.35;;;;;;;;;;5013082;28;20270;-83
2023/07/15 10:26:04;;;;;;;5.35;2.10;;;;;;;;;;5005927;28;20729;-82
2023/07/15 10:28:34;;;;;;;2.33;2.13;;;;;;;;;;5001865;28;20780;-83
2023/07/15 10:31:08;;;;;;;5.30;2.03;;;;;;;;;;5012189;28;20792;-82
2023/07/15 10:33:36;;;;;;;2.47;1.90;;;;;;;;;;5035811;28;20233;-83
2023/07/15 10:36:06;;;;;;;6.13;1.90;;;;;;;;;;5044513;28;20695;-82
2023/07/15 10:38:34;;;;;;;3.70;2.47;;;;;;;;;;5052771;28;20229;-83
2023/07/15 10:41:02;;;;;;;3.55;2.08;;;;;;;;;;5041977;28;20257;-82
2023/07/15 10:43:39;;;;;;;5.35;2.10;;;;;;;;;;5015220;28;20243;-82
2023/07/15 10:46:07;;;;;;;3.92;2.10;;;;;;;;;;4996506;28;20269;-82
2023/07/15 10:48:34;;;;;;;5.63;2.25;;;;;;;;;;4997480;28;20736;-82
2023/07/15 10:51:02;;;;;;;2.85;2.08;;;;;;;;;;5005665;28;20269;-83
2023/07/15 10:53:30;;;;;;;2.70;2.50;;;;;;;;;;4998941;28;20242;-86
2023/07/15 10:55:59;;;;;;;3.53;2.53;;;;;;;;;;5013424;28;20234;-86
2023/07/15 10:58:26;;;;;;;2.50;2.30;;;;;;;;;;5018080;28;20290;-85
2023/07/15 11:00:58;;;;;;;2.88;2.20;;;;;;;;;;5019167;28;20265;-86
2023/07/15 11:03:25;;;;;;;4.00;2.17;;;;;;;;;;5022307;28;20313;-84
2023/07/15 11:05:52;;;;;;;4.15;2.47;;;;;;;;;;5032252;28;20210;-84
2023/07/15 11:08:20;;;;;;;2.45;2.22;;;;;;;;;;5021711;28;20314;-85
2023/07/15 11:10:49;;;;;;;3.28;2.35;;;;;;;;;;5012562;28;20211;-84
2023/07/15 11:13:17;;;;;;;3.00;2.20;;;;;;;;;;5014395;28;20227;-85
2023/07/15 11:15:45;;;;;;;3.78;2.22;;;;;;;;;;5012892;28;20334;-85
2023/07/15 11:18:16;;;;;;;6.82;2.20;;;;;;;;;;5012611;28;20230;-84
2023/07/15 11:20:43;;;;;;;3.97;2.33;;;;;;;;;;5031938;28;20297;-83
2023/07/15 11:23:11;;;;;;;2.38;2.17;;;;;;;;;;5020357;28;20294;-85
2023/07/15 11:25:38;;;;;;;3.42;2.30;;;;;;;;;;4992670;28;20212;-84
2023/07/15 11:28:07;;;;;;;4.93;2.33;;;;;;;;;;4994802;28;20314;-83
2023/07/15 11:30:42;;;;;;;2.38;2.17;;;;;;;;;;5088543;28;21132;-84
2023/07/15 11:33:09;;;;;;;7.22;2.22;;;;;;;;;;5096182;28;20232;-85
2023/07/15 11:35:37;;;;;;;2.00;1.90;;;;;;;;;;5108798;28;20208;-86
2023/07/15 11:38:08;;;;;;;4.03;2.50;;;;;;;;;;5108337;28;20251;-85
2023/07/15 11:40:36;;;;;;;4.30;2.35;;;;;;;;;;5109065;28;20236;-85
2023/07/15 11:43:06;;;;;;;4.32;2.25;;;;;;;;;;5108169;28;20243;-84
2023/07/15 11:45:33;;;;;;;6.47;2.50;;;;;;;;;;5108795;28;20242;-85
2023/07/15 11:48:01;;;;;;;4.47;2.70;;;;;;;;;;5107975;28;20729;-85
2023/07/15 11:50:28;;;;;;;4.00;2.30;;;;;;;;;;5108592;28;20709;-84
2023/07/15 11:52:56;;;;;;;4.10;2.58;;;;;;;;;;5102424;28;20286;-86
2023/07/15 11:55:26;;;;;;;5.35;2.35;;;;;;;;;;5100903;28;20204;-86
2023/07/15 11:57:53;;;;;;;5.05;2.85;;;;;;;;;;5108190;28;20234;-85
2023/07/15 12:00:27;;;;;;;2.88;2.33;;;;;;;;;;5108762;28;20235;-86
2023/07/15 12:02:54;;;;;;;3.90;3.42;;;;;;;;;;5103019;28;20311;-85
2023/07/15 12:05:23;;;;;;;3.22;2.75;;;;;;;;;;5105272;28;20201;-85
2023/07/15 12:07:50;;;;;;;3.33;2.78;;;;;;;;;;5108080;28;20281;-85
2023/07/15 12:10:17;;;;;;;4.75;2.60;;;;;;;;;;5105966;28;20224;-84
2023/07/15 12:12:45;;;;;;;3.08;2.72;;;;;;;;;;5097176;28;20228;-84
2023/07/15 12:15:12;;;;;;;3.25;2.88;;;;;;;;;;5108340;28;20666;-84
2023/07/15 12:17:39;;;;;;;5.68;2.70;;;;;;;;;;5108220;28;20235;-85
2023/07/15 12:20:07;;;;;;;2.95;2.65;;;;;;;;;;5099233;28;20196;-84
2023/07/15 12:22:35;;;;;;;4.13;2.42;;;;;;;;;;5102367;28;20232;-86
2023/07/15 12:25:02;;;;;;;2.70;2.50;;;;;;;;;;5108506;28;20208;-85
2023/07/15 12:27:30;;;;;;;3.92;2.47;;;;;;;;;;5108107;28;20239;-87
2023/07/15 12:29:57;;;;;;;4.03;2.65;;;;;;;;;;5098941;28;20224;-85
2023/07/15 12:32:24;;;;;;;4.57;2.55;;;;;;;;;;5107621;28;20247;-86
2023/07/15 12:34:51;;;;;;;4.93;2.17;;;;;;;;;;5108072;28;20209;-85
2023/07/15 12:37:19;;;;;;;4.05;2.90;;;;;;;;;;5107700;28;20204;-85
2023/07/15 12:39:47;;;;;;;3.30;2.97;;;;;;;;;;5107771;28;20433;-86
2023/07/15 12:42:14;;;;;;;3.40;2.42;;;;;;;;;;5091747;28;20631;-88
2023/07/15 12:44:41;;;;;;;8.57;4.97;;;;;;;;;;5094989;28;20204;-85
2023/07/15 12:47:08;;;;;;;4.18;2.60;;;;;;;;;;5087088;28;20247;-87
2023/07/15 12:49:35;;;;;;;6.30;2.65;;;;;;;;;;5099296;28;20232;-91
2023/07/15 12:52:02;;;;;;;3.97;2.67;;;;;;;;;;5096322;28;20233;-92
2023/07/15 12:54:29;;;;;;;5.53;2.35;;;;;;;;;;5094985;28;20636;-90
2023/07/15 12:56:58;;;;;;;3.42;2.85;;;;;;;;;;5094692;28;20549;-85
2023/07/15 12:59:25;;;;;;;4.85;2.90;;;;;;;;;;5094345;28;20236;-85
2023/07/15 13:01:52;;;;;;;2.47;2.20;;;;;;;;;;5092794;28;20225;-86
2023/07/15 13:04:19;;;;;;;4.07;2.28;;;;;;;;;;5093942;28;20235;-88
2023/07/15 13:06:46;;;;;;;2.78;2.50;;;;;;;;;;5095244;28;20616;-86
2023/07/15 13:09:14;;;;;;;4.85;2.80;;;;;;;;;;5093848;28;20311;-85
2023/07/15 13:11:41;;;;;;;3.20;2.83;;;;;;;;;;5094603;28;20200;-88
2023/07/15 13:14:09;;;;;;;4.20;3.05;;;;;;;;;;5094492;28;20282;-91
2023/07/15 13:16:36;;;;;;;6.25;2.92;;;;;;;;;;5095402;28;20900;-83
2023/07/15 13:19:03;;;;;;;6.35;2.78;;;;;;;;;;5096643;28;20236;-94
2023/07/15 13:21:30;;;;;;;7.55;2.97;;;;;;;;;;5095288;28;20209;-86
2023/07/15 13:23:57;;;;;;;2.78;2.58;;;;;;;;;;5089216;28;20718;-86
2023/07/15 13:26:24;;;;;;;3.70;2.83;;;;;;;;;;5094024;28;20576;-87
2023/07/15 13:28:52;;;;;;;4.10;3.17;;;;;;;;;;5094147;28;20263;-87
2023/07/15 13:31:20;;;;;;;3.40;2.70;;;;;;;;;;5094084;28;20201;-87
2023/07/15 13:33:48;;;;;;;2.97;2.65;;;;;;;;;;5093848;28;20228;-88
2023/07/15 13:36:15;;;;;;;3.45;2.90;;;;;;;;;;5093856;28;20711;-83
2023/07/15 13:38:42;;;;;;;5.35;3.00;;;;;;;;;;5093964;28;20594;-86
2023/07/15 13:41:09;;;;;;;4.13;2.60;;;;;;;;;;5093351;28;20688;-86
2023/07/15 13:43:36;;;;;;;4.95;3.00;;;;;;;;;;5093446;28;20283;-84
2023/07/15 13:46:03;;;;;;;5.65;2.85;;;;;;;;;;5094145;28;20275;-90
2023/07/15 13:48:32;;;;;;;2.70;2.50;;;;;;;;;;5094113;28;20243;-89
2023/07/15 13:50:59;;;;;;;3.50;2.65;;;;;;;;;;5093342;28;20642;-87
2023/07/15 13:53:26;;;;;;;5.43;2.70;;;;;;;;;;5092318;28;20235;-86
2023/07/15 13:55:53;;;;;;;4.60;2.60;;;;;;;;;;5094462;28;20201;-88
2023/07/15 13:58:20;;;;;;;3.88;2.65;;;;;;;;;;5086759;28;20803;-87
2023/07/15 14:00:48;;;;;;;5.25;2.92;;;;;;;;;;5095712;28;20207;-88
2023/07/15 14:03:15;;;;;;;3.15;2.53;;;;;;;;;;5095345;28;20295;-92
2023/07/15 14:05:43;;;;;;;4.80;2.75;;;;;;;;;;5095431;28;20251;-85
2023/07/15 14:08:10;;;;;;;4.20;2.50;;;;;;;;;;5093282;28;20233;-86
2023/07/15 14:10:37;;;;;;;6.63;2.72;;;;;;;;;;5093439;28;20217;-87
2023/07/15 14:13:04;;;;;;;10.10;2.72;;;;;;;;;;5092683;28;20236;-88
2023/07/15 14:15:31;;;;;;;2.67;2.47;;;;;;;;;;5093499;28;20209;-88
2023/07/15 14:18:00;;;;;;;4.25;3.45;;;;;;;;;;5092985;28;20285;-90
2023/07/15 14:20:28;;;;;;;2.85;2.30;;;;;;;;;;5091143;28;20220;-89
2023/07/15 14:22:56;;;;;;;2.83;2.17;;;;;;;;;;5093330;28;20262;-87
2023/07/15 14:25:23;;;;;;;4.20;2.70;;;;;;;;;;5084965;28;20250;-85
2023/07/15 14:27:50;;;;;;;4.28;2.90;;;;;;;;;;5086800;28;20725;-85
2023/07/15 14:30:17;;;;;;;4.88;2.20;;;;;;;;;;5092243;28;20224;-86
2023/07/15 14:32:44;;;;;;;2.60;2.40;;;;;;;;;;5092219;28;20240;-85
2023/07/15 14:35:11;;;;;;;3.00;2.22;;;;;;;;;;5092190;28;20204;-85
2023/07/15 14:37:38;;;;;;;2.70;2.30;;;;;;;;;;5092087;28;20635;-84
2023/07/15 14:40:08;;;;;;;2.90;2.47;;;;;;;;;;5092287;28;20207;-84
2023/07/15 14:42:35;;;;;;;4.28;2.63;;;;;;;;;;5091806;28;20237;-85
2023/07/15 14:45:02;;;;;;;4.82;2.85;;;;;;;;;;5092325;28;20208;-86